KRHV 201847Z VRB05KT 10SM SCT070 10/M05 A3023